sensor_id;sensor_type;location;lat;lon;timestamp;P1;P2;P0
46885;PMS5003;32622;48.202;11.326;2022-09-09T00:01:29;10;10;
46885;PMS5003;32622;48.202;11.326;2022-09-09T00:03:43;10;10;
46885;PMS5003;32622;48.202;11.326;2022-09-09T00:05:58;10;10;
46885;PMS5003;32622;48.202;11.326;2022-09-09T00:08:07;10;10;
46885;PMS5003;32622;48.202;11.326;2022-09-09T00:10:23;10;10;
46885;PMS5003;32622;48.202;11.326;2022-09-09T00:12:32;10;10;
46885;PMS5003;32622;48.202;11.326;2022-09-09T00:14:46;10;10;
46885;PMS5003;32622;48.202;11.326;2022-09-09T00:16:56;10;10;
46885;PMS5003;32622;48.202;11.326;2022-09-09T00:19:06;12;11;
46885;PMS5003;32622;48.202;11.326;2022-09-09T00:21:23;12;11;
46885;PMS5003;32622;48.202;11.326;2022-09-09T00:23:38;12;11;
46885;PMS5003;32622;48.202;11.326;2022-09-09T00:25:49;12;10;
46885;PMS5003;32622;48.202;11.326;2022-09-09T00:28:02;12;10;
46885;PMS5003;32622;48.202;11.326;2022-09-09T00:30:13;12;10;
46885;PMS5003;32622;48.202;11.326;2022-09-09T00:32:21;12;10;
46885;PMS5003;32622;48.202;11.326;2022-09-09T00:34:31;12;10;
46885;PMS5003;32622;48.202;11.326;2022-09-09T00:36:35;12;10;
46885;PMS5003;32622;48.202;11.326;2022-09-09T00:38:43;12;11;
46885;PMS5003;32622;48.202;11.326;2022-09-09T00:40:52;12;11;
46885;PMS5003;32622;48.202;11.326;2022-09-09T00:43:07;12;11;
46885;PMS5003;32622;48.202;11.326;2022-09-09T00:45:32;12;10;
46885;PMS5003;32622;48.202;11.326;2022-09-09T00:47:49;12;10;
46885;PMS5003;32622;48.202;11.326;2022-09-09T00:49:57;12;10;
46885;PMS5003;32622;48.202;11.326;2022-09-09T00:52:07;12;11;
46885;PMS5003;32622;48.202;11.326;2022-09-09T00:54:26;12;11;
46885;PMS5003;32622;48.202;11.326;2022-09-09T00:56:37;12;11;
46885;PMS5003;32622;48.202;11.326;2022-09-09T00:58:53;12;11;
46885;PMS5003;32622;48.202;11.326;2022-09-09T01:01:08;12;11;
46885;PMS5003;32622;48.202;11.326;2022-09-09T01:03:18;12;11;
46885;PMS5003;32622;48.202;11.326;2022-09-09T01:05:27;13;11;
46885;PMS5003;32622;48.202;11.326;2022-09-09T01:07:38;13;11;
46885;PMS5003;32622;48.202;11.326;2022-09-09T01:09:54;13;11;
46885;PMS5003;32622;48.202;11.326;2022-09-09T01:12:09;13;12;
46885;PMS5003;32622;48.202;11.326;2022-09-09T01:14:22;13;12;
46885;PMS5003;32622;48.202;11.326;2022-09-09T01:16:34;13;12;
46885;PMS5003;32622;48.202;11.326;2022-09-09T01:18:39;12;12;
46885;PMS5003;32622;48.202;11.326;2022-09-09T01:20:56;12;12;
46885;PMS5003;32622;48.202;11.326;2022-09-09T01:23:21;12;12;
46885;PMS5003;32622;48.202;11.326;2022-09-09T01:28:12;11;11;
46885;PMS5003;32622;48.202;11.326;2022-09-09T01:30:19;11;11;
46885;PMS5003;32622;48.202;11.326;2022-09-09T01:32:41;11;11;
46885;PMS5003;32622;48.202;11.326;2022-09-09T01:34:47;11;11;
46885;PMS5003;32622;48.202;11.326;2022-09-09T01:36:56;11;11;
46885;PMS5003;32622;48.202;11.326;2022-09-09T01:39:05;11;11;
46885;PMS5003;32622;48.202;11.326;2022-09-09T01:41:08;11;11;
46885;PMS5003;32622;48.202;11.326;2022-09-09T01:43:18;11;11;
46885;PMS5003;32622;48.202;11.326;2022-09-09T01:45:24;11;11;
46885;PMS5003;32622;48.202;11.326;2022-09-09T01:47:29;11;11;
46885;PMS5003;32622;48.202;11.326;2022-09-09T01:49:33;11;11;
46885;PMS5003;32622;48.202;11.326;2022-09-09T01:51:38;11;11;
46885;PMS5003;32622;48.202;11.326;2022-09-09T01:53:46;11;11;
46885;PMS5003;32622;48.202;11.326;2022-09-09T01:55:54;11;11;
46885;PMS5003;32622;48.202;11.326;2022-09-09T01:58:13;11;11;
46885;PMS5003;32622;48.202;11.326;2022-09-09T02:00:30;11;11;
46885;PMS5003;32622;48.202;11.326;2022-09-09T02:02:39;11;11;
46885;PMS5003;32622;48.202;11.326;2022-09-09T02:04:52;10;10;
46885;PMS5003;32622;48.202;11.326;2022-09-09T02:07:06;10;10;
46885;PMS5003;32622;48.202;11.326;2022-09-09T02:09:21;10;10;
46885;PMS5003;32622;48.202;11.326;2022-09-09T02:11:27;11;11;
46885;PMS5003;32622;48.202;11.326;2022-09-09T02:13:34;11;11;
46885;PMS5003;32622;48.202;11.326;2022-09-09T02:15:42;11;11;
46885;PMS5003;32622;48.202;11.326;2022-09-09T02:17:49;11;11;
46885;PMS5003;32622;48.202;11.326;2022-09-09T02:19:59;11;11;
46885;PMS5003;32622;48.202;11.326;2022-09-09T02:22:11;11;11;
46885;PMS5003;32622;48.202;11.326;2022-09-09T02:24:15;11;11;
46885;PMS5003;32622;48.202;11.326;2022-09-09T02:26:19;11;11;
46885;PMS5003;32622;48.202;11.326;2022-09-09T02:28:25;11;11;
46885;PMS5003;32622;48.202;11.326;2022-09-09T02:30:32;11;11;
46885;PMS5003;32622;48.202;11.326;2022-09-09T02:32:39;11;11;
46885;PMS5003;32622;48.202;11.326;2022-09-09T02:34:45;11;11;
46885;PMS5003;32622;48.202;11.326;2022-09-09T02:36:53;11;11;
46885;PMS5003;32622;48.202;11.326;2022-09-09T02:39:00;11;11;
46885;PMS5003;32622;48.202;11.326;2022-09-09T02:41:07;11;11;
46885;PMS5003;32622;48.202;11.326;2022-09-09T02:43:11;12;11;
46885;PMS5003;32622;48.202;11.326;2022-09-09T02:45:17;12;11;
46885;PMS5003;32622;48.202;11.326;2022-09-09T02:47:26;12;11;
46885;PMS5003;32622;48.202;11.326;2022-09-09T02:49:39;13;12;
46885;PMS5003;32622;48.202;11.326;2022-09-09T02:51:52;13;12;
46885;PMS5003;32622;48.202;11.326;2022-09-09T02:54:07;13;12;
46885;PMS5003;32622;48.202;11.326;2022-09-09T02:56:20;14;13;
46885;PMS5003;32622;48.202;11.326;2022-09-09T02:58:30;14;13;
46885;PMS5003;32622;48.202;11.326;2022-09-09T03:00:36;14;13;
46885;PMS5003;32622;48.202;11.326;2022-09-09T03:02:43;14;13;
46885;PMS5003;32622;48.202;11.326;2022-09-09T03:04:47;14;13;
46885;PMS5003;32622;48.202;11.326;2022-09-09T03:06:54;14;13;
46885;PMS5003;32622;48.202;11.326;2022-09-09T03:09:02;14;13;
46885;PMS5003;32622;48.202;11.326;2022-09-09T03:11:08;14;13;
46885;PMS5003;32622;48.202;11.326;2022-09-09T03:13:13;14;13;
46885;PMS5003;32622;48.202;11.326;2022-09-09T03:15:21;14;13;
46885;PMS5003;32622;48.202;11.326;2022-09-09T03:17:26;14;13;
46885;PMS5003;32622;48.202;11.326;2022-09-09T03:19:31;14;13;
46885;PMS5003;32622;48.202;11.326;2022-09-09T03:21:35;14;12;
46885;PMS5003;32622;48.202;11.326;2022-09-09T03:23:40;14;12;
46885;PMS5003;32622;48.202;11.326;2022-09-09T03:25:48;14;12;
46885;PMS5003;32622;48.202;11.326;2022-09-09T03:27:54;13;12;
46885;PMS5003;32622;48.202;11.326;2022-09-09T03:29:58;13;12;
46885;PMS5003;32622;48.202;11.326;2022-09-09T03:32:02;13;12;
46885;PMS5003;32622;48.202;11.326;2022-09-09T03:34:07;13;12;
46885;PMS5003;32622;48.202;11.326;2022-09-09T03:36:11;13;12;
46885;PMS5003;32622;48.202;11.326;2022-09-09T03:38:14;13;12;
46885;PMS5003;32622;48.202;11.326;2022-09-09T03:40:19;13;12;
46885;PMS5003;32622;48.202;11.326;2022-09-09T03:42:23;13;12;
46885;PMS5003;32622;48.202;11.326;2022-09-09T03:44:31;13;12;
46885;PMS5003;32622;48.202;11.326;2022-09-09T03:46:40;11;11;
46885;PMS5003;32622;48.202;11.326;2022-09-09T03:48:44;11;11;
46885;PMS5003;32622;48.202;11.326;2022-09-09T03:50:49;11;11;
46885;PMS5003;32622;48.202;11.326;2022-09-09T03:52:56;11;11;
46885;PMS5003;32622;48.202;11.326;2022-09-09T03:55:03;11;11;
46885;PMS5003;32622;48.202;11.326;2022-09-09T03:57:11;11;11;
46885;PMS5003;32622;48.202;11.326;2022-09-09T03:59:17;11;11;
46885;PMS5003;32622;48.202;11.326;2022-09-09T04:01:25;11;11;
46885;PMS5003;32622;48.202;11.326;2022-09-09T04:03:31;11;11;
46885;PMS5003;32622;48.202;11.326;2022-09-09T04:05:35;11;11;
46885;PMS5003;32622;48.202;11.326;2022-09-09T04:07:39;11;11;
46885;PMS5003;32622;48.202;11.326;2022-09-09T04:09:44;11;11;
46885;PMS5003;32622;48.202;11.326;2022-09-09T04:11:47;10;10;
46885;PMS5003;32622;48.202;11.326;2022-09-09T04:13:50;10;10;
46885;PMS5003;32622;48.202;11.326;2022-09-09T04:15:58;10;10;
46885;PMS5003;32622;48.202;11.326;2022-09-09T04:18:04;10;10;
46885;PMS5003;32622;48.202;11.326;2022-09-09T04:20:10;10;10;
46885;PMS5003;32622;48.202;11.326;2022-09-09T04:22:13;10;10;
46885;PMS5003;32622;48.202;11.326;2022-09-09T04:24:17;10;10;
46885;PMS5003;32622;48.202;11.326;2022-09-09T04:26:20;10;10;
46885;PMS5003;32622;48.202;11.326;2022-09-09T04:28:25;10;10;
46885;PMS5003;32622;48.202;11.326;2022-09-09T04:30:30;10;10;
46885;PMS5003;32622;48.202;11.326;2022-09-09T04:32:33;10;10;
46885;PMS5003;32622;48.202;11.326;2022-09-09T04:34:36;10;10;
46885;PMS5003;32622;48.202;11.326;2022-09-09T04:36:42;10;10;
46885;PMS5003;32622;48.202;11.326;2022-09-09T04:38:46;10;10;
46885;PMS5003;32622;48.202;11.326;2022-09-09T04:40:50;10;10;
46885;PMS5003;32622;48.202;11.326;2022-09-09T04:42:54;9;9;
46885;PMS5003;32622;48.202;11.326;2022-09-09T04:45:00;9;9;
46885;PMS5003;32622;48.202;11.326;2022-09-09T04:47:03;9;9;
46885;PMS5003;32622;48.202;11.326;2022-09-09T04:49:07;9;9;
46885;PMS5003;32622;48.202;11.326;2022-09-09T04:51:12;9;9;
46885;PMS5003;32622;48.202;11.326;2022-09-09T04:53:16;9;9;
46885;PMS5003;32622;48.202;11.326;2022-09-09T04:55:21;9;9;
46885;PMS5003;32622;48.202;11.326;2022-09-09T04:57:25;9;9;
46885;PMS5003;32622;48.202;11.326;2022-09-09T04:59:29;9;9;
46885;PMS5003;32622;48.202;11.326;2022-09-09T05:01:33;9;9;
46885;PMS5003;32622;48.202;11.326;2022-09-09T05:03:37;9;9;
46885;PMS5003;32622;48.202;11.326;2022-09-09T05:05:40;9;9;
46885;PMS5003;32622;48.202;11.326;2022-09-09T05:07:44;9;9;
46885;PMS5003;32622;48.202;11.326;2022-09-09T05:09:47;9;9;
46885;PMS5003;32622;48.202;11.326;2022-09-09T05:11:50;9;9;
46885;PMS5003;32622;48.202;11.326;2022-09-09T05:13:54;10;10;
46885;PMS5003;32622;48.202;11.326;2022-09-09T05:15:57;10;10;
46885;PMS5003;32622;48.202;11.326;2022-09-09T05:18:01;10;10;
46885;PMS5003;32622;48.202;11.326;2022-09-09T05:20:04;10;10;
46885;PMS5003;32622;48.202;11.326;2022-09-09T05:22:08;10;10;
46885;PMS5003;32622;48.202;11.326;2022-09-09T05:24:11;10;10;
46885;PMS5003;32622;48.202;11.326;2022-09-09T05:26:15;11;11;
46885;PMS5003;32622;48.202;11.326;2022-09-09T05:28:19;11;11;
46885;PMS5003;32622;48.202;11.326;2022-09-09T05:30:23;11;11;
46885;PMS5003;32622;48.202;11.326;2022-09-09T05:32:35;11;11;
46885;PMS5003;32622;48.202;11.326;2022-09-09T05:34:42;11;11;
46885;PMS5003;32622;48.202;11.326;2022-09-09T05:36:46;11;11;
46885;PMS5003;32622;48.202;11.326;2022-09-09T05:38:50;12;12;
46885;PMS5003;32622;48.202;11.326;2022-09-09T05:40:56;12;12;
46885;PMS5003;32622;48.202;11.326;2022-09-09T05:51:16;9;9;
46885;PMS5003;32622;48.202;11.326;2022-09-09T05:55:41;11;11;
46885;PMS5003;32622;48.202;11.326;2022-09-09T05:57:48;11;11;
46885;PMS5003;32622;48.202;11.326;2022-09-09T05:59:53;11;11;
46885;PMS5003;32622;48.202;11.326;2022-09-09T06:01:58;11;11;
46885;PMS5003;32622;48.202;11.326;2022-09-09T06:04:01;11;11;
46885;PMS5003;32622;48.202;11.326;2022-09-09T06:06:06;11;11;
46885;PMS5003;32622;48.202;11.326;2022-09-09T06:08:14;11;11;
46885;PMS5003;32622;48.202;11.326;2022-09-09T06:10:17;11;11;
46885;PMS5003;32622;48.202;11.326;2022-09-09T06:12:20;11;11;
46885;PMS5003;32622;48.202;11.326;2022-09-09T06:14:23;11;11;
46885;PMS5003;32622;48.202;11.326;2022-09-09T06:16:27;11;11;
46885;PMS5003;32622;48.202;11.326;2022-09-09T06:18:31;11;11;
46885;PMS5003;32622;48.202;11.326;2022-09-09T06:20:34;11;11;
46885;PMS5003;32622;48.202;11.326;2022-09-09T06:22:38;11;11;
46885;PMS5003;32622;48.202;11.326;2022-09-09T06:24:42;11;11;
46885;PMS5003;32622;48.202;11.326;2022-09-09T06:26:46;11;11;
46885;PMS5003;32622;48.202;11.326;2022-09-09T06:28:50;10;10;
46885;PMS5003;32622;48.202;11.326;2022-09-09T06:30:57;10;10;
46885;PMS5003;32622;48.202;11.326;2022-09-09T06:33:04;10;10;
46885;PMS5003;32622;48.202;11.326;2022-09-09T06:35:08;10;10;
46885;PMS5003;32622;48.202;11.326;2022-09-09T06:37:11;10;10;
46885;PMS5003;32622;48.202;11.326;2022-09-09T06:39:14;10;10;
46885;PMS5003;32622;48.202;11.326;2022-09-09T06:41:18;10;10;
46885;PMS5003;32622;48.202;11.326;2022-09-09T06:43:22;10;10;
46885;PMS5003;32622;48.202;11.326;2022-09-09T06:45:25;10;10;
46885;PMS5003;32622;48.202;11.326;2022-09-09T06:47:28;11;10;
46885;PMS5003;32622;48.202;11.326;2022-09-09T06:49:31;11;10;
46885;PMS5003;32622;48.202;11.326;2022-09-09T06:51:35;11;10;
46885;PMS5003;32622;48.202;11.326;2022-09-09T06:53:40;10;9;
46885;PMS5003;32622;48.202;11.326;2022-09-09T06:55:44;10;9;
46885;PMS5003;32622;48.202;11.326;2022-09-09T06:57:47;10;9;
46885;PMS5003;32622;48.202;11.326;2022-09-09T06:59:50;10;9;
46885;PMS5003;32622;48.202;11.326;2022-09-09T07:01:53;10;9;
46885;PMS5003;32622;48.202;11.326;2022-09-09T07:03:56;10;9;
46885;PMS5003;32622;48.202;11.326;2022-09-09T07:06:00;10;9;
46885;PMS5003;32622;48.202;11.326;2022-09-09T07:08:07;10;9;
46885;PMS5003;32622;48.202;11.326;2022-09-09T07:10:10;10;9;
46885;PMS5003;32622;48.202;11.326;2022-09-09T07:12:12;10;9;
46885;PMS5003;32622;48.202;11.326;2022-09-09T07:14:15;10;9;
46885;PMS5003;32622;48.202;11.326;2022-09-09T07:16:19;10;9;
46885;PMS5003;32622;48.202;11.326;2022-09-09T07:18:23;10;9;
46885;PMS5003;32622;48.202;11.326;2022-09-09T07:20:26;10;9;
46885;PMS5003;32622;48.202;11.326;2022-09-09T07:22:29;10;9;
46885;PMS5003;32622;48.202;11.326;2022-09-09T07:24:32;10;9;
46885;PMS5003;32622;48.202;11.326;2022-09-09T07:26:35;10;9;
46885;PMS5003;32622;48.202;11.326;2022-09-09T07:28:39;10;9;
46885;PMS5003;32622;48.202;11.326;2022-09-09T07:30:43;11;9;
46885;PMS5003;32622;48.202;11.326;2022-09-09T07:32:46;11;9;
46885;PMS5003;32622;48.202;11.326;2022-09-09T07:34:49;11;9;
46885;PMS5003;32622;48.202;11.326;2022-09-09T07:36:52;11;10;
46885;PMS5003;32622;48.202;11.326;2022-09-09T07:38:57;11;10;
46885;PMS5003;32622;48.202;11.326;2022-09-09T07:41:05;11;10;
46885;PMS5003;32622;48.202;11.326;2022-09-09T07:43:10;10;9;
46885;PMS5003;32622;48.202;11.326;2022-09-09T07:45:13;10;9;
46885;PMS5003;32622;48.202;11.326;2022-09-09T07:47:20;10;9;
46885;PMS5003;32622;48.202;11.326;2022-09-09T07:49:23;9;9;
46885;PMS5003;32622;48.202;11.326;2022-09-09T07:51:27;9;9;
46885;PMS5003;32622;48.202;11.326;2022-09-09T07:53:32;9;9;
46885;PMS5003;32622;48.202;11.326;2022-09-09T07:55:35;9;9;
46885;PMS5003;32622;48.202;11.326;2022-09-09T07:57:38;9;9;
46885;PMS5003;32622;48.202;11.326;2022-09-09T07:59:41;9;9;
46885;PMS5003;32622;48.202;11.326;2022-09-09T08:01:45;9;9;
46885;PMS5003;32622;48.202;11.326;2022-09-09T08:03:53;9;9;
46885;PMS5003;32622;48.202;11.326;2022-09-09T08:06:00;9;9;
46885;PMS5003;32622;48.202;11.326;2022-09-09T08:08:03;9;9;
46885;PMS5003;32622;48.202;11.326;2022-09-09T08:10:06;9;9;
46885;PMS5003;32622;48.202;11.326;2022-09-09T08:12:10;9;9;
46885;PMS5003;32622;48.202;11.326;2022-09-09T08:14:13;9;9;
46885;PMS5003;32622;48.202;11.326;2022-09-09T08:16:17;9;9;
46885;PMS5003;32622;48.202;11.326;2022-09-09T08:18:21;9;9;
46885;PMS5003;32622;48.202;11.326;2022-09-09T08:20:24;8;8;
46885;PMS5003;32622;48.202;11.326;2022-09-09T08:22:27;8;8;
46885;PMS5003;32622;48.202;11.326;2022-09-09T08:24:30;8;8;
46885;PMS5003;32622;48.202;11.326;2022-09-09T08:26:34;10;9;
46885;PMS5003;32622;48.202;11.326;2022-09-09T08:28:38;10;9;
46885;PMS5003;32622;48.202;11.326;2022-09-09T08:30:42;10;9;
46885;PMS5003;32622;48.202;11.326;2022-09-09T08:32:45;9;8;
46885;PMS5003;32622;48.202;11.326;2022-09-09T08:34:48;9;8;
46885;PMS5003;32622;48.202;11.326;2022-09-09T08:36:51;9;8;
46885;PMS5003;32622;48.202;11.326;2022-09-09T08:38:55;9;8;
46885;PMS5003;32622;48.202;11.326;2022-09-09T08:41:11;9;8;
46885;PMS5003;32622;48.202;11.326;2022-09-09T08:43:27;9;8;
46885;PMS5003;32622;48.202;11.326;2022-09-09T08:45:34;9;8;
46885;PMS5003;32622;48.202;11.326;2022-09-09T08:47:52;9;8;
46885;PMS5003;32622;48.202;11.326;2022-09-09T08:50:11;9;8;
46885;PMS5003;32622;48.202;11.326;2022-09-09T08:52:22;9;8;
46885;PMS5003;32622;48.202;11.326;2022-09-09T08:54:30;9;8;
46885;PMS5003;32622;48.202;11.326;2022-09-09T08:56:36;9;8;
46885;PMS5003;32622;48.202;11.326;2022-09-09T08:58:41;9;8;
46885;PMS5003;32622;48.202;11.326;2022-09-09T09:01:02;9;8;
46885;PMS5003;32622;48.202;11.326;2022-09-09T09:03:22;9;8;
46885;PMS5003;32622;48.202;11.326;2022-09-09T09:05:31;9;8;
46885;PMS5003;32622;48.202;11.326;2022-09-09T09:07:43;9;8;
46885;PMS5003;32622;48.202;11.326;2022-09-09T09:09:56;9;8;
46885;PMS5003;32622;48.202;11.326;2022-09-09T09:12:10;11;10;
46885;PMS5003;32622;48.202;11.326;2022-09-09T09:14:18;11;10;
46885;PMS5003;32622;48.202;11.326;2022-09-09T09:16:25;11;10;
46885;PMS5003;32622;48.202;11.326;2022-09-09T09:18:32;12;10;
46885;PMS5003;32622;48.202;11.326;2022-09-09T09:20:37;12;10;
46885;PMS5003;32622;48.202;11.326;2022-09-09T09:22:49;12;10;
46885;PMS5003;32622;48.202;11.326;2022-09-09T09:24:54;13;12;
46885;PMS5003;32622;48.202;11.326;2022-09-09T09:26:58;13;12;
46885;PMS5003;32622;48.202;11.326;2022-09-09T09:29:12;13;12;
46885;PMS5003;32622;48.202;11.326;2022-09-09T09:31:16;13;13;
46885;PMS5003;32622;48.202;11.326;2022-09-09T09:33:22;13;13;
46885;PMS5003;32622;48.202;11.326;2022-09-09T09:35:29;13;13;
46885;PMS5003;32622;48.202;11.326;2022-09-09T09:37:32;14;14;
46885;PMS5003;32622;48.202;11.326;2022-09-09T09:39:36;14;14;
46885;PMS5003;32622;48.202;11.326;2022-09-09T09:41:40;14;14;
46885;PMS5003;32622;48.202;11.326;2022-09-09T09:43:52;13;13;
46885;PMS5003;32622;48.202;11.326;2022-09-09T09:45:56;13;13;
46885;PMS5003;32622;48.202;11.326;2022-09-09T09:48:00;13;13;
46885;PMS5003;32622;48.202;11.326;2022-09-09T09:50:16;13;13;
46885;PMS5003;32622;48.202;11.326;2022-09-09T09:52:21;13;13;
46885;PMS5003;32622;48.202;11.326;2022-09-09T09:54:27;13;13;
46885;PMS5003;32622;48.202;11.326;2022-09-09T09:56:33;13;13;
46885;PMS5003;32622;48.202;11.326;2022-09-09T09:58:46;13;13;
46885;PMS5003;32622;48.202;11.326;2022-09-09T10:00:53;13;13;
46885;PMS5003;32622;48.202;11.326;2022-09-09T10:02:56;13;13;
46885;PMS5003;32622;48.202;11.326;2022-09-09T10:05:03;13;13;
46885;PMS5003;32622;48.202;11.326;2022-09-09T10:07:10;13;13;
46885;PMS5003;32622;48.202;11.326;2022-09-09T10:09:22;14;14;
46885;PMS5003;32622;48.202;11.326;2022-09-09T10:11:30;14;14;
46885;PMS5003;32622;48.202;11.326;2022-09-09T10:13:46;14;14;
46885;PMS5003;32622;48.202;11.326;2022-09-09T10:16:00;15;13;
46885;PMS5003;32622;48.202;11.326;2022-09-09T10:18:19;15;13;
46885;PMS5003;32622;48.202;11.326;2022-09-09T10:20:35;15;13;
46885;PMS5003;32622;48.202;11.326;2022-09-09T10:22:43;15;13;
46885;PMS5003;32622;48.202;11.326;2022-09-09T10:24:56;15;13;
46885;PMS5003;32622;48.202;11.326;2022-09-09T10:27:15;14;13;
46885;PMS5003;32622;48.202;11.326;2022-09-09T10:29:28;14;12;
46885;PMS5003;32622;48.202;11.326;2022-09-09T10:31:43;14;12;
46885;PMS5003;32622;48.202;11.326;2022-09-09T10:33:56;14;12;
46885;PMS5003;32622;48.202;11.326;2022-09-09T10:36:08;14;11;
46885;PMS5003;32622;48.202;11.326;2022-09-09T10:38:19;14;11;
46885;PMS5003;32622;48.202;11.326;2022-09-09T10:40:31;14;11;
46885;PMS5003;32622;48.202;11.326;2022-09-09T10:42:36;14;11;
46885;PMS5003;32622;48.202;11.326;2022-09-09T10:44:42;14;11;
46885;PMS5003;32622;48.202;11.326;2022-09-09T10:47:01;14;11;
46885;PMS5003;32622;48.202;11.326;2022-09-09T10:49:31;13;12;
46885;PMS5003;32622;48.202;11.326;2022-09-09T10:51:56;13;12;
46885;PMS5003;32622;48.202;11.326;2022-09-09T10:54:11;13;12;
46885;PMS5003;32622;48.202;11.326;2022-09-09T10:56:22;14;12;
46885;PMS5003;32622;48.202;11.326;2022-09-09T10:58:27;15;12;
46885;PMS5003;32622;48.202;11.326;2022-09-09T11:00:37;15;12;
46885;PMS5003;32622;48.202;11.326;2022-09-09T11:02:44;15;12;
46885;PMS5003;32622;48.202;11.326;2022-09-09T11:04:51;15;12;
46885;PMS5003;32622;48.202;11.326;2022-09-09T11:06:57;15;12;
46885;PMS5003;32622;48.202;11.326;2022-09-09T11:09:08;15;13;
46885;PMS5003;32622;48.202;11.326;2022-09-09T11:11:19;15;13;
46885;PMS5003;32622;48.202;11.326;2022-09-09T11:13:30;14;13;
46885;PMS5003;32622;48.202;11.326;2022-09-09T11:15:42;14;12;
46885;PMS5003;32622;48.202;11.326;2022-09-09T11:17:52;14;12;
46885;PMS5003;32622;48.202;11.326;2022-09-09T11:19:58;14;12;
46885;PMS5003;32622;48.202;11.326;2022-09-09T11:22:01;13;13;
46885;PMS5003;32622;48.202;11.326;2022-09-09T11:24:10;13;13;
46885;PMS5003;32622;48.202;11.326;2022-09-09T11:26:23;13;13;
46885;PMS5003;32622;48.202;11.326;2022-09-09T11:28:37;13;13;
46885;PMS5003;32622;48.202;11.326;2022-09-09T11:30:54;13;13;
46885;PMS5003;32622;48.202;11.326;2022-09-09T11:33:20;13;13;
46885;PMS5003;32622;48.202;11.326;2022-09-09T11:35:39;12;12;
46885;PMS5003;32622;48.202;11.326;2022-09-09T11:38:00;12;12;
46885;PMS5003;32622;48.202;11.326;2022-09-09T11:40:17;12;12;
46885;PMS5003;32622;48.202;11.326;2022-09-09T11:42:24;12;12;
46885;PMS5003;32622;48.202;11.326;2022-09-09T11:44:28;12;12;
46885;PMS5003;32622;48.202;11.326;2022-09-09T11:46:34;12;12;
46885;PMS5003;32622;48.202;11.326;2022-09-09T11:48:41;11;11;
46885;PMS5003;32622;48.202;11.326;2022-09-09T11:50:45;11;11;
46885;PMS5003;32622;48.202;11.326;2022-09-09T11:53:04;11;11;
46885;PMS5003;32622;48.202;11.326;2022-09-09T11:55:25;11;11;
46885;PMS5003;32622;48.202;11.326;2022-09-09T11:57:30;11;11;
46885;PMS5003;32622;48.202;11.326;2022-09-09T11:59:37;11;11;
46885;PMS5003;32622;48.202;11.326;2022-09-09T12:01:40;11;11;
46885;PMS5003;32622;48.202;11.326;2022-09-09T12:03:46;11;11;
46885;PMS5003;32622;48.202;11.326;2022-09-09T12:05:52;11;11;
46885;PMS5003;32622;48.202;11.326;2022-09-09T12:07:58;11;11;
46885;PMS5003;32622;48.202;11.326;2022-09-09T12:10:19;11;11;
46885;PMS5003;32622;48.202;11.326;2022-09-09T12:12:29;11;11;
46885;PMS5003;32622;48.202;11.326;2022-09-09T12:14:35;11;11;
46885;PMS5003;32622;48.202;11.326;2022-09-09T12:16:40;11;11;
46885;PMS5003;32622;48.202;11.326;2022-09-09T12:18:43;11;11;
46885;PMS5003;32622;48.202;11.326;2022-09-09T12:20:51;11;11;
46885;PMS5003;32622;48.202;11.326;2022-09-09T12:23:11;11;11;
46885;PMS5003;32622;48.202;11.326;2022-09-09T12:25:44;11;11;
46885;PMS5003;32622;48.202;11.326;2022-09-09T12:28:02;11;11;
46885;PMS5003;32622;48.202;11.326;2022-09-09T12:30:14;11;11;
46885;PMS5003;32622;48.202;11.326;2022-09-09T12:32:31;11;11;
46885;PMS5003;32622;48.202;11.326;2022-09-09T12:34:36;11;11;
46885;PMS5003;32622;48.202;11.326;2022-09-09T12:36:42;11;11;
46885;PMS5003;32622;48.202;11.326;2022-09-09T12:43:18;11;11;
46885;PMS5003;32622;48.202;11.326;2022-09-09T12:45:26;11;11;
46885;PMS5003;32622;48.202;11.326;2022-09-09T12:47:37;11;11;
46885;PMS5003;32622;48.202;11.326;2022-09-09T12:49:45;11;11;
46885;PMS5003;32622;48.202;11.326;2022-09-09T12:52:01;11;11;
46885;PMS5003;32622;48.202;11.326;2022-09-09T12:54:12;12;12;
46885;PMS5003;32622;48.202;11.326;2022-09-09T12:56:18;12;12;
46885;PMS5003;32622;48.202;11.326;2022-09-09T12:58:23;12;12;
46885;PMS5003;32622;48.202;11.326;2022-09-09T13:00:27;11;11;
46885;PMS5003;32622;48.202;11.326;2022-09-09T13:02:31;11;11;
46885;PMS5003;32622;48.202;11.326;2022-09-09T13:04:36;11;11;
46885;PMS5003;32622;48.202;11.326;2022-09-09T13:06:47;10;10;
46885;PMS5003;32622;48.202;11.326;2022-09-09T13:08:50;10;10;
46885;PMS5003;32622;48.202;11.326;2022-09-09T13:10:56;10;10;
46885;PMS5003;32622;48.202;11.326;2022-09-09T13:13:13;10;10;
46885;PMS5003;32622;48.202;11.326;2022-09-09T13:15:21;10;10;
46885;PMS5003;32622;48.202;11.326;2022-09-09T13:17:26;10;10;
46885;PMS5003;32622;48.202;11.326;2022-09-09T13:19:32;11;11;
46885;PMS5003;32622;48.202;11.326;2022-09-09T13:21:48;11;11;
46885;PMS5003;32622;48.202;11.326;2022-09-09T13:23:51;11;11;
46885;PMS5003;32622;48.202;11.326;2022-09-09T13:25:56;10;10;
46885;PMS5003;32622;48.202;11.326;2022-09-09T13:28:00;10;10;
46885;PMS5003;32622;48.202;11.326;2022-09-09T13:30:22;10;10;
46885;PMS5003;32622;48.202;11.326;2022-09-09T13:32:37;10;10;
46885;PMS5003;32622;48.202;11.326;2022-09-09T13:34:49;10;10;
46885;PMS5003;32622;48.202;11.326;2022-09-09T13:36:59;10;10;
46885;PMS5003;32622;48.202;11.326;2022-09-09T13:39:21;10;10;
46885;PMS5003;32622;48.202;11.326;2022-09-09T13:41:25;9;9;
46885;PMS5003;32622;48.202;11.326;2022-09-09T13:43:34;9;9;
46885;PMS5003;32622;48.202;11.326;2022-09-09T13:45:40;9;9;
46885;PMS5003;32622;48.202;11.326;2022-09-09T13:47:43;9;9;
46885;PMS5003;32622;48.202;11.326;2022-09-09T13:49:46;9;9;
46885;PMS5003;32622;48.202;11.326;2022-09-09T13:51:50;9;9;
46885;PMS5003;32622;48.202;11.326;2022-09-09T13:53:53;9;9;
46885;PMS5003;32622;48.202;11.326;2022-09-09T13:55:56;9;9;
46885;PMS5003;32622;48.202;11.326;2022-09-09T13:58:01;9;9;
46885;PMS5003;32622;48.202;11.326;2022-09-09T14:00:05;9;9;
46885;PMS5003;32622;48.202;11.326;2022-09-09T14:02:13;9;9;
46885;PMS5003;32622;48.202;11.326;2022-09-09T14:04:17;9;9;
46885;PMS5003;32622;48.202;11.326;2022-09-09T14:06:20;10;10;
46885;PMS5003;32622;48.202;11.326;2022-09-09T14:08:24;10;10;
46885;PMS5003;32622;48.202;11.326;2022-09-09T14:10:28;10;10;
46885;PMS5003;32622;48.202;11.326;2022-09-09T14:12:32;9;9;
46885;PMS5003;32622;48.202;11.326;2022-09-09T14:14:35;9;9;
46885;PMS5003;32622;48.202;11.326;2022-09-09T14:16:38;9;9;
46885;PMS5003;32622;48.202;11.326;2022-09-09T14:18:41;9;9;